Time;durP1;ratioP1;P1;durP2;ratioP2;P2;SDS_P1;SDS_P2;PMS_P1;PMS_P2;Temp;Humidity;BMP_temperature;BMP_pressure;BME280_temperature;BME280_humidity;BME280_pressure;Samples;Min_cycle;Max_cycle;Signal;HPM_P1;HPM_P2
2023/04/09 00:01:04;;;;;;;27.93;21.53;;;5.50;99.90;;;;;;4967215;28;20263;-69
2023/04/09 00:03:30;;;;;;;31.93;23.80;;;5.50;99.90;;;;;;4969763;28;20692;-66
2023/04/09 00:05:55;;;;;;;32.77;23.00;;;5.40;99.90;;;;;;4966368;28;20228;-65
2023/04/09 00:08:22;;;;;;;33.13;23.13;;;5.40;99.90;;;;;;4965992;28;20206;-66
2023/04/09 00:10:48;;;;;;;31.20;23.40;;;5.30;99.90;;;;;;4964516;28;20252;-66
2023/04/09 00:13:14;;;;;;;36.70;24.87;;;5.20;99.90;;;;;;4966358;28;20201;-66
2023/04/09 00:15:39;;;;;;;37.03;28.00;;;5.10;99.90;;;;;;4965824;28;20206;-65
2023/04/09 00:18:05;;;;;;;35.13;26.43;;;5.00;99.90;;;;;;4966395;28;20274;-66
2023/04/09 00:20:30;;;;;;;31.43;24.23;;;4.90;99.90;;;;;;4966772;28;20212;-67
2023/04/09 00:22:57;;;;;;;35.87;25.77;;;4.90;99.90;;;;;;4975071;28;20212;-67
2023/04/09 00:25:23;;;;;;;40.93;28.87;;;4.80;99.90;;;;;;4965490;28;20227;-67
2023/04/09 00:27:48;;;;;;;45.10;31.17;;;4.80;99.90;;;;;;4965633;28;20560;-67
2023/04/09 00:30:14;;;;;;;43.93;30.43;;;4.70;99.90;;;;;;4967838;28;20199;-66
2023/04/09 00:32:40;;;;;;;45.07;29.20;;;4.60;99.90;;;;;;4975786;28;20267;-65
2023/04/09 00:35:06;;;;;;;42.63;30.07;;;4.60;99.90;;;;;;4974704;28;20858;-66
2023/04/09 00:37:32;;;;;;;41.03;30.27;;;4.60;99.90;;;;;;4976030;28;20266;-66
2023/04/09 00:39:58;;;;;;;36.87;26.90;;;4.60;99.90;;;;;;4975805;28;20197;-68
2023/04/09 00:42:24;;;;;;;38.03;26.80;;;4.60;99.90;;;;;;4975679;28;20197;-66
2023/04/09 00:44:50;;;;;;;38.37;26.87;;;4.60;99.90;;;;;;4975627;28;20983;-66
2023/04/09 00:47:16;;;;;;;38.23;26.10;;;4.60;99.90;;;;;;4974844;28;20201;-66
2023/04/09 00:49:44;;;;;;;38.57;27.30;;;4.60;99.90;;;;;;4966771;28;20228;-67
2023/04/09 00:52:10;;;;;;;33.43;25.23;;;4.60;99.90;;;;;;4976166;28;20231;-67
2023/04/09 00:54:36;;;;;;;38.43;26.40;;;4.60;99.90;;;;;;4973355;28;20733;-68
2023/04/09 00:57:02;;;;;;;35.40;27.10;;;4.60;99.90;;;;;;4974531;28;20201;-66
2023/04/09 00:59:28;;;;;;;37.53;26.00;;;4.60;99.90;;;;;;4975376;28;20271;-67
2023/04/09 01:01:53;;;;;;;34.90;25.43;;;4.60;99.90;;;;;;4962541;28;20243;-66
2023/04/09 01:04:20;;;;;;;39.00;26.67;;;4.60;99.90;;;;;;4966001;28;20249;-67
2023/04/09 01:07:02;;;;;;;39.27;26.83;;;4.60;99.90;;;;;;4967755;28;20203;-66
2023/04/09 01:09:34;;;;;;;38.00;27.07;;;4.60;99.90;;;;;;4965775;28;20212;-66
2023/04/09 01:12:22;;;;;;;30.83;24.93;;;4.60;99.90;;;;;;4965856;28;20284;-67
2023/04/09 01:14:58;;;;;;;34.37;25.73;;;4.60;99.90;;;;;;4962698;28;20256;-66
2023/04/09 01:17:33;;;;;;;34.03;25.07;;;4.60;99.90;;;;;;4966351;28;21012;-66
2023/04/09 01:20:10;;;;;;;33.13;23.03;;;4.60;99.90;;;;;;4966761;28;20557;-66
2023/04/09 01:22:53;;;;;;;31.50;22.63;;;4.50;99.90;;;;;;4966479;28;20211;-66
2023/04/09 01:25:32;;;;;;;32.03;21.70;;;4.50;99.90;;;;;;4963387;28;20217;-66
2023/04/09 01:28:07;;;;;;;33.30;23.70;;;4.50;99.90;;;;;;4968407;28;20201;-67
2023/04/09 01:30:33;;;;;;;32.17;24.83;;;4.50;99.90;;;;;;4969332;28;20235;-65
2023/04/09 01:32:59;;;;;;;34.57;25.07;;;4.50;99.90;;;;;;4968400;28;20692;-66
2023/04/09 01:35:26;;;;;;;33.73;25.30;;;4.50;99.90;;;;;;4968745;28;20232;-68
2023/04/09 01:37:53;;;;;;;32.50;22.70;;;4.40;99.90;;;;;;4965079;28;20241;-67
2023/04/09 01:40:18;;;;;;;34.03;23.90;;;4.50;99.90;;;;;;4972318;28;20226;-66
2023/04/09 01:42:45;;;;;;;34.27;24.73;;;4.40;99.90;;;;;;4966565;28;20205;-67
2023/04/09 01:45:12;;;;;;;31.60;22.33;;;4.40;99.90;;;;;;4952646;28;20719;-65
2023/04/09 01:47:38;;;;;;;32.73;23.23;;;4.40;99.90;;;;;;4967750;28;20196;-68
2023/04/09 01:50:05;;;;;;;33.03;24.23;;;4.30;99.90;;;;;;4969370;28;20220;-67
2023/04/09 01:52:30;;;;;;;31.77;23.33;;;4.30;99.90;;;;;;4969081;28;20203;-65
2023/04/09 01:54:56;;;;;;;35.57;24.57;;;4.30;99.90;;;;;;4969311;28;20221;-67
2023/04/09 01:57:22;;;;;;;32.47;23.73;;;4.30;99.90;;;;;;4968623;28;20748;-67
2023/04/09 01:59:47;;;;;;;36.50;23.53;;;4.30;99.90;;;;;;4968606;28;20212;-66
2023/04/09 02:02:23;;;;;;;33.97;24.03;;;4.30;99.90;;;;;;4967018;28;20283;-67
2023/04/09 02:04:52;;;;;;;30.97;24.47;;;4.20;99.90;;;;;;4969649;28;20235;-65
2023/04/09 02:07:41;;;;;;;33.00;25.17;;;4.20;99.90;;;;;;4970253;28;20203;-68
2023/04/09 02:10:09;;;;;;;38.23;25.30;;;4.10;99.90;;;;;;4967488;28;20949;-68
2023/04/09 02:12:40;;;;;;;37.40;25.63;;;4.00;99.90;;;;;;4968082;28;20317;-67
2023/04/09 02:15:06;;;;;;;33.63;24.87;;;4.00;99.90;;;;;;4964897;28;20624;-66
2023/04/09 02:17:31;;;;;;;32.97;22.93;;;3.90;99.90;;;;;;4969348;28;20212;-66
2023/04/09 02:19:57;;;;;;;34.50;24.03;;;3.90;99.90;;;;;;4968754;28;20209;-67
2023/04/09 02:22:23;;;;;;;35.87;25.20;;;3.80;99.90;;;;;;4969655;28;20690;-65
2023/04/09 02:24:48;;;;;;;31.40;23.67;;;3.80;99.90;;;;;;4950946;28;20221;-66
2023/04/09 02:27:14;;;;;;;33.87;25.73;;;3.80;99.90;;;;;;4966550;28;20194;-66
2023/04/09 02:29:40;;;;;;;34.80;24.43;;;3.80;99.90;;;;;;4967542;28;20204;-66
2023/04/09 02:32:08;;;;;;;32.23;24.67;;;3.80;99.90;;;;;;4971711;28;20284;-66
2023/04/09 02:34:33;;;;;;;34.17;24.60;;;3.80;99.90;;;;;;4973874;28;20204;-66
2023/04/09 02:36:59;;;;;;;33.17;24.77;;;3.70;99.90;;;;;;4974625;28;20204;-66
2023/04/09 02:39:24;;;;;;;32.83;22.93;;;3.70;99.90;;;;;;4965765;28;20680;-66
2023/04/09 02:41:51;;;;;;;34.87;24.30;;;3.70;99.90;;;;;;4969047;28;20205;-66
2023/04/09 02:44:16;;;;;;;36.70;25.37;;;3.70;99.90;;;;;;4968660;28;20672;-66
2023/04/09 02:46:43;;;;;;;36.90;26.53;;;3.70;99.90;;;;;;4967831;28;20194;-65
2023/04/09 02:49:08;;;;;;;33.63;23.63;;;3.60;99.90;;;;;;4973839;28;20209;-65
2023/04/09 02:51:34;;;;;;;35.93;26.27;;;3.70;99.90;;;;;;4957617;28;20201;-66
2023/04/09 02:54:00;;;;;;;34.67;24.70;;;3.60;99.90;;;;;;4978139;28;20239;-65
2023/04/09 02:56:26;;;;;;;36.13;26.67;;;3.60;99.90;;;;;;4977539;28;20193;-65
2023/04/09 02:58:52;;;;;;;39.17;25.10;;;3.50;99.90;;;;;;4977592;28;20197;-66
2023/04/09 03:01:19;;;;;;;31.27;22.87;;;3.40;99.90;;;;;;4975795;28;20200;-65
2023/04/09 03:03:44;;;;;;;35.93;24.43;;;3.30;99.90;;;;;;4977410;28;20627;-65
2023/04/09 03:06:10;;;;;;;36.23;23.83;;;3.30;99.90;;;;;;4977499;28;20232;-65
2023/04/09 03:08:35;;;;;;;31.17;24.00;;;3.30;99.90;;;;;;4977617;28;20220;-65
2023/04/09 03:11:01;;;;;;;34.87;24.80;;;3.20;99.90;;;;;;4976372;28;20280;-65
2023/04/09 03:13:27;;;;;;;33.10;24.20;;;3.20;99.90;;;;;;4974365;28;20200;-65
2023/04/09 03:15:52;;;;;;;34.03;25.27;;;3.20;99.90;;;;;;4977337;28;20211;-65
2023/04/09 03:18:18;;;;;;;33.40;25.87;;;3.20;99.90;;;;;;4977253;28;20287;-65
2023/04/09 03:20:44;;;;;;;35.33;25.03;;;3.10;99.90;;;;;;4977026;28;20552;-65
2023/04/09 03:23:10;;;;;;;34.57;25.03;;;3.10;99.90;;;;;;4974512;28;20197;-66
2023/04/09 03:25:35;;;;;;;36.50;26.47;;;3.00;99.90;;;;;;4967797;28;20221;-65
2023/04/09 03:28:02;;;;;;;35.27;26.47;;;3.00;99.90;;;;;;4969999;28;20208;-66
2023/04/09 03:30:27;;;;;;;39.50;25.53;;;3.00;99.90;;;;;;4970445;28;20204;-67
2023/04/09 03:32:53;;;;;;;36.07;25.13;;;3.00;99.90;;;;;;4972117;28;20240;-65
2023/04/09 03:35:18;;;;;;;43.53;23.77;;;3.10;99.90;;;;;;4976941;28;20200;-66
2023/04/09 03:37:44;;;;;;;41.97;24.23;;;3.10;99.90;;;;;;4976882;28;20204;-66
2023/04/09 03:40:10;;;;;;;47.80;23.03;;;3.20;99.90;;;;;;4974801;28;20209;-66
2023/04/09 03:42:36;;;;;;;43.63;24.60;;;3.30;99.90;;;;;;4978635;28;20208;-66
2023/04/09 03:45:02;;;;;;;39.37;23.97;;;3.40;99.90;;;;;;4975223;28;20375;-66
2023/04/09 03:47:28;;;;;;;48.70;26.17;;;3.40;99.90;;;;;;4976956;28;20201;-65
2023/04/09 03:49:53;;;;;;;33.53;22.67;;;3.40;99.90;;;;;;4974274;28;20207;-65
2023/04/09 03:52:19;;;;;;;32.93;22.70;;;3.40;99.90;;;;;;4976436;28;20271;-65
2023/04/09 03:54:44;;;;;;;40.10;24.23;;;3.40;99.90;;;;;;4976331;28;20200;-65
2023/04/09 03:57:10;;;;;;;36.03;22.77;;;3.40;99.90;;;;;;4978567;28;20202;-65
2023/04/09 03:59:35;;;;;;;36.53;22.83;;;3.40;99.90;;;;;;4974022;28;20325;-66
2023/04/09 04:02:01;;;;;;;34.73;22.80;;;3.40;99.90;;;;;;4976434;28;20603;-66
2023/04/09 04:04:26;;;;;;;39.77;23.50;;;3.40;99.90;;;;;;4973943;28;20228;-65
2023/04/09 04:06:52;;;;;;;36.73;21.50;;;3.50;99.90;;;;;;4976311;28;20201;-65
2023/04/09 04:09:17;;;;;;;41.00;23.00;;;3.50;99.90;;;;;;4976316;28;20279;-66
2023/04/09 04:11:42;;;;;;;40.37;23.20;;;3.50;99.90;;;;;;4976281;28;21020;-65
2023/04/09 04:14:08;;;;;;;41.70;22.10;;;3.50;99.90;;;;;;4963704;28;20295;-65
2023/04/09 04:16:33;;;;;;;43.73;22.97;;;3.50;99.90;;;;;;4966844;28;20208;-65
2023/04/09 04:18:59;;;;;;;32.63;20.63;;;3.60;99.90;;;;;;4965324;28;21107;-65
2023/04/09 04:21:26;;;;;;;45.47;22.43;;;3.60;99.90;;;;;;4967151;28;20251;-65
2023/04/09 04:23:51;;;;;;;35.83;22.70;;;3.70;99.90;;;;;;4966918;28;20193;-65
2023/04/09 04:26:17;;;;;;;41.10;20.97;;;3.70;99.90;;;;;;4966918;28;20196;-65
2023/04/09 04:28:42;;;;;;;44.17;23.33;;;3.70;99.90;;;;;;4966920;28;20196;-65
2023/04/09 04:31:11;;;;;;;39.50;23.77;;;3.80;99.90;;;;;;4948178;28;20415;-66
2023/04/09 04:33:38;;;;;;;44.93;22.77;;;3.80;99.90;;;;;;4966534;28;20686;-67
2023/04/09 04:36:09;;;;;;;41.17;20.80;;;3.80;99.90;;;;;;4966016;28;20229;-66
2023/04/09 04:38:35;;;;;;;41.33;22.20;;;3.80;99.90;;;;;;4969681;28;20208;-70
2023/04/09 04:41:01;;;;;;;44.87;23.47;;;3.80;99.90;;;;;;4963131;28;20200;-66
2023/04/09 04:43:26;;;;;;;54.03;23.77;;;3.90;99.90;;;;;;4950623;28;20215;-65
2023/04/09 04:45:52;;;;;;;37.93;22.07;;;3.90;99.90;;;;;;4965072;28;20296;-65
2023/04/09 04:48:17;;;;;;;36.97;21.27;;;3.90;99.90;;;;;;4968098;28;20565;-65
2023/04/09 04:50:43;;;;;;;45.53;22.40;;;4.00;99.90;;;;;;4967362;28;20200;-65
2023/04/09 04:53:08;;;;;;;43.10;21.80;;;4.00;99.90;;;;;;4965475;28;20640;-66
2023/04/09 04:55:40;;;;;;;34.93;22.57;;;4.10;99.90;;;;;;4967454;28;20619;-66
2023/04/09 04:58:05;;;;;;;37.93;24.47;;;4.10;99.90;;;;;;4966220;28;20252;-66
2023/04/09 05:00:31;;;;;;;38.00;22.90;;;4.20;99.90;;;;;;4964349;28;20197;-66
2023/04/09 05:02:56;;;;;;;44.63;25.53;;;4.20;99.90;;;;;;4969856;28;20676;-66
2023/04/09 05:05:22;;;;;;;39.00;25.47;;;4.20;99.90;;;;;;4967999;28;20365;-66
2023/04/09 05:07:47;;;;;;;41.50;24.93;;;4.30;99.90;;;;;;4970455;28;20201;-66
2023/04/09 05:10:13;;;;;;;34.97;23.93;;;4.40;99.90;;;;;;4970596;28;20197;-65
2023/04/09 05:12:38;;;;;;;37.20;24.63;;;4.50;99.90;;;;;;4970531;28;20201;-65
2023/04/09 05:15:04;;;;;;;41.17;24.57;;;4.60;99.90;;;;;;4970216;28;20291;-65
2023/04/09 05:17:30;;;;;;;33.47;24.10;;;4.70;99.90;;;;;;4970295;28;20284;-65
2023/04/09 05:19:56;;;;;;;36.90;26.10;;;4.80;99.90;;;;;;4972471;28;20287;-66
2023/04/09 05:22:22;;;;;;;35.77;24.40;;;4.80;99.90;;;;;;4970891;28;20220;-65
2023/04/09 05:24:48;;;;;;;39.63;25.57;;;4.90;99.90;;;;;;4979469;28;20307;-65
2023/04/09 05:27:13;;;;;;;38.73;25.07;;;5.00;99.90;;;;;;4979953;28;20589;-65
2023/04/09 05:29:39;;;;;;;32.13;24.30;;;5.10;99.90;;;;;;4979522;28;20569;-65
2023/04/09 05:32:05;;;;;;;34.30;24.43;;;5.20;99.90;;;;;;4976068;28;20213;-66
2023/04/09 05:34:31;;;;;;;36.13;24.17;;;5.30;99.90;;;;;;4979348;28;20244;-66
2023/04/09 05:36:56;;;;;;;34.40;24.53;;;5.30;99.90;;;;;;4979298;28;20287;-65
2023/04/09 05:39:22;;;;;;;30.43;22.27;;;5.40;99.90;;;;;;4978604;28;20212;-65
2023/04/09 05:41:47;;;;;;;34.87;23.67;;;5.40;99.90;;;;;;4979101;28;20576;-66
2023/04/09 05:44:13;;;;;;;33.27;23.80;;;5.50;99.90;;;;;;4977370;28;20224;-65
2023/04/09 05:46:38;;;;;;;36.07;25.43;;;5.50;99.90;;;;;;4978822;28;20205;-65
2023/04/09 05:49:04;;;;;;;34.73;24.27;;;5.60;99.90;;;;;;4978645;28;20726;-66
2023/04/09 05:51:29;;;;;;;36.03;24.57;;;5.70;99.90;;;;;;4978387;28;20189;-65
2023/04/09 05:53:55;;;;;;;37.43;24.50;;;5.70;99.90;;;;;;4979064;28;20205;-66
2023/04/09 05:56:24;;;;;;;38.50;24.73;;;5.70;99.90;;;;;;4977561;28;20292;-66
2023/04/09 05:58:50;;;;;;;32.57;22.60;;;5.70;99.90;;;;;;4978563;28;20329;-66
2023/04/09 06:01:15;;;;;;;32.53;23.40;;;5.70;99.90;;;;;;4978606;28;20259;-66
2023/04/09 06:03:40;;;;;;;33.87;24.63;;;5.70;99.90;;;;;;4975295;28;20623;-66
2023/04/09 06:06:06;;;;;;;35.43;24.73;;;5.70;99.90;;;;;;4967835;28;20305;-66
2023/04/09 06:08:32;;;;;;;33.73;23.83;;;5.80;99.90;;;;;;4967720;28;20305;-67
2023/04/09 06:10:57;;;;;;;34.23;24.93;;;5.70;99.90;;;;;;4968527;28;20189;-65
2023/04/09 06:13:23;;;;;;;32.20;21.97;;;5.80;99.90;;;;;;4967140;28;20252;-64
2023/04/09 06:15:49;;;;;;;35.10;24.53;;;5.90;99.90;;;;;;4967588;28;20711;-65
2023/04/09 06:18:15;;;;;;;34.93;25.13;;;5.90;99.90;;;;;;4968420;28;20205;-65
2023/04/09 06:20:40;;;;;;;33.70;25.37;;;6.00;99.90;;;;;;4968030;28;20312;-65
2023/04/09 06:23:06;;;;;;;32.63;24.63;;;6.20;99.90;;;;;;4967103;28;20201;-65
2023/04/09 06:25:31;;;;;;;33.03;23.30;;;6.20;99.90;;;;;;4968608;28;20270;-66
2023/04/09 06:27:57;;;;;;;32.03;22.23;;;6.20;99.90;;;;;;4968925;28;20349;-66
2023/04/09 06:30:22;;;;;;;35.73;26.07;;;6.40;99.90;;;;;;4977422;28;20189;-66
2023/04/09 06:32:49;;;;;;;37.47;22.47;;;6.40;99.90;;;;;;4969451;28;20224;-65
2023/04/09 06:35:14;;;;;;;30.37;22.00;;;6.40;99.90;;;;;;4966005;28;20201;-66
2023/04/09 06:37:40;;;;;;;32.23;22.90;;;6.20;99.90;;;;;;4968335;28;20211;-65
2023/04/09 06:40:06;;;;;;;34.10;22.23;;;6.00;99.90;;;;;;4968585;28;20205;-66
2023/04/09 06:42:32;;;;;;;28.93;22.97;;;6.10;99.90;;;;;;4967924;28;20867;-66
2023/04/09 06:44:57;;;;;;;31.83;23.70;;;6.20;99.90;;;;;;4966284;28;20247;-66
2023/04/09 06:47:23;;;;;;;30.40;23.10;;;6.40;99.90;;;;;;4968249;28;20217;-68
2023/04/09 06:49:48;;;;;;;31.40;21.80;;;6.60;99.90;;;;;;4968901;28;20204;-66
2023/04/09 06:52:14;;;;;;;28.70;22.93;;;6.60;99.90;;;;;;4975295;28;20209;-65
2023/04/09 06:54:39;;;;;;;30.63;23.10;;;6.60;99.90;;;;;;4967399;28;20224;-66
2023/04/09 06:57:06;;;;;;;31.07;24.00;;;6.70;99.90;;;;;;4968635;28;20196;-66
2023/04/09 06:59:32;;;;;;;35.57;23.20;;;6.80;99.90;;;;;;4976019;28;20576;-66
2023/04/09 07:01:58;;;;;;;30.17;23.00;;;6.70;99.90;;;;;;4968049;28;20281;-65
2023/04/09 07:04:24;;;;;;;31.27;22.47;;;6.80;99.90;;;;;;4968008;28;20489;-65
2023/04/09 07:06:51;;;;;;;31.07;23.13;;;6.80;99.90;;;;;;4968200;28;20197;-65
2023/04/09 07:09:17;;;;;;;27.83;21.50;;;6.80;99.90;;;;;;4966192;28;20205;-65
2023/04/09 07:11:43;;;;;;;35.57;25.30;;;6.80;99.90;;;;;;4967767;28;20194;-65
2023/04/09 07:14:08;;;;;;;32.90;23.50;;;6.90;99.90;;;;;;4951240;28;20614;-66
2023/04/09 07:16:34;;;;;;;30.57;21.80;;;7.00;99.90;;;;;;4968981;28;20285;-65
2023/04/09 07:18:59;;;;;;;31.73;23.20;;;7.00;99.90;;;;;;4968618;28;20704;-66
2023/04/09 07:21:27;;;;;;;31.47;22.80;;;7.10;99.90;;;;;;4967518;28;20201;-66
2023/04/09 07:23:52;;;;;;;33.13;23.37;;;7.00;99.90;;;;;;4965095;28;20207;-67
2023/04/09 07:26:18;;;;;;;35.30;25.10;;;6.90;99.90;;;;;;4966607;28;20579;-66
2023/04/09 07:28:44;;;;;;;32.63;22.10;;;7.00;99.90;;;;;;4967156;28;20224;-67
2023/04/09 07:31:10;;;;;;;32.23;23.43;;;7.10;99.90;;;;;;4967664;28;20276;-66
2023/04/09 07:33:36;;;;;;;30.67;22.03;;;7.10;99.90;;;;;;4967526;28;20275;-67
2023/04/09 07:36:01;;;;;;;34.33;24.60;;;7.20;99.90;;;;;;4967126;28;20672;-67
2023/04/09 07:38:29;;;;;;;34.73;23.47;;;7.30;99.90;;;;;;4966620;28;20217;-66
2023/04/09 07:40:54;;;;;;;33.43;23.90;;;7.30;99.90;;;;;;4966533;28;20284;-67
2023/04/09 07:43:20;;;;;;;31.63;23.83;;;7.40;99.90;;;;;;4966488;28;20292;-66
2023/04/09 07:45:48;;;;;;;36.60;23.67;;;7.40;99.90;;;;;;4964242;28;20216;-65
2023/04/09 07:48:14;;;;;;;37.37;25.07;;;7.40;99.90;;;;;;4965359;28;20205;-66
2023/04/09 07:50:39;;;;;;;32.90;24.87;;;7.60;99.90;;;;;;4965581;28;20223;-66
2023/04/09 07:53:05;;;;;;;34.67;24.53;;;7.60;99.90;;;;;;4968443;28;20201;-66
2023/04/09 07:55:30;;;;;;;33.93;22.77;;;7.70;99.90;;;;;;4968738;28;20311;-66
2023/04/09 07:57:55;;;;;;;31.63;22.97;;;7.80;99.90;;;;;;4966666;28;20450;-67
2023/04/09 08:00:21;;;;;;;28.73;22.80;;;7.80;99.90;;;;;;4966740;28;20766;-70
2023/04/09 08:02:47;;;;;;;32.10;23.23;;;7.80;99.90;;;;;;4966556;28;20281;-70
2023/04/09 08:05:12;;;;;;;31.77;24.07;;;7.80;99.90;;;;;;4970392;28;20219;-70
2023/04/09 08:07:38;;;;;;;31.83;24.67;;;7.60;99.90;;;;;;4977267;28;20449;-68
2023/04/09 08:10:05;;;;;;;29.20;23.60;;;7.70;99.90;;;;;;4974862;28;20203;-68
2023/04/09 08:12:30;;;;;;;34.60;24.90;;;7.70;99.90;;;;;;4976679;28;20209;-68
2023/04/09 08:14:56;;;;;;;34.20;23.77;;;7.60;99.90;;;;;;4976925;28;20224;-68
2023/04/09 08:17:22;;;;;;;35.03;24.33;;;7.50;99.90;;;;;;4976796;28;20360;-63
2023/04/09 08:19:48;;;;;;;30.43;22.93;;;7.50;99.90;;;;;;4976594;28;20575;-63
2023/04/09 08:22:14;;;;;;;34.20;24.67;;;7.50;99.90;;;;;;4976510;28;20758;-64
2023/04/09 08:24:42;;;;;;;33.13;23.13;;;7.60;99.90;;;;;;4974605;28;20478;-64
2023/04/09 08:27:07;;;;;;;32.30;24.27;;;7.40;99.90;;;;;;4976417;28;20680;-64
2023/04/09 08:29:33;;;;;;;29.90;23.67;;;7.50;99.90;;;;;;4970799;28;20193;-63
2023/04/09 08:31:59;;;;;;;33.10;24.33;;;7.70;99.90;;;;;;4966811;28;20715;-63
2023/04/09 08:34:24;;;;;;;32.73;24.77;;;8.00;99.90;;;;;;4964695;28;20735;-62
2023/04/09 08:36:50;;;;;;;30.97;23.77;;;8.10;99.90;;;;;;4973724;28;20520;-62
2023/04/09 08:39:19;;;;;;;34.00;24.33;;;7.80;99.90;;;;;;4980349;28;20201;-64
2023/04/09 08:41:46;;;;;;;31.00;24.63;;;7.80;99.90;;;;;;4974542;28;20422;-63
2023/04/09 08:44:12;;;;;;;34.43;23.70;;;7.90;99.90;;;;;;4970999;28;20225;-63
2023/04/09 08:46:37;;;;;;;36.87;25.57;;;8.00;99.90;;;;;;4967741;28;20953;-62
2023/04/09 08:49:03;;;;;;;31.03;24.20;;;8.20;99.90;;;;;;4970062;28;20676;-62
2023/04/09 08:51:28;;;;;;;33.03;23.37;;;8.40;99.90;;;;;;4969168;28;20190;-61
2023/04/09 08:53:56;;;;;;;29.53;22.67;;;8.40;99.90;;;;;;4967807;28;20564;-62
2023/04/09 08:56:22;;;;;;;30.03;23.07;;;8.40;99.90;;;;;;4967725;28;20248;-64
2023/04/09 08:58:48;;;;;;;32.67;23.03;;;8.50;99.90;;;;;;4966416;28;20209;-61
2023/04/09 09:01:22;;;;;;;29.60;23.13;;;8.40;99.90;;;;;;4969058;28;20589;-63
2023/04/09 09:04:02;;;;;;;33.90;24.17;;;8.50;99.90;;;;;;4969035;28;20223;-62
2023/04/09 09:06:31;;;;;;;30.43;23.27;;;8.70;99.90;;;;;;4969897;28;20245;-62
2023/04/09 09:09:09;;;;;;;33.70;23.43;;;9.00;99.90;;;;;;4975694;28;20201;-62
2023/04/09 09:11:41;;;;;;;31.33;22.93;;;9.10;99.90;;;;;;4977834;28;20682;-62
2023/04/09 09:14:11;;;;;;;28.53;22.07;;;9.10;99.90;;;;;;4980055;28;20201;-62
2023/04/09 09:16:41;;;;;;;34.30;23.40;;;9.00;99.90;;;;;;4979900;28;20199;-62
2023/04/09 09:19:32;;;;;;;30.70;22.50;;;9.00;99.90;;;;;;4979459;28;20207;-62
2023/04/09 09:22:02;;;;;;;31.70;23.07;;;8.80;99.90;;;;;;4946867;28;20628;-62
2023/04/09 09:24:29;;;;;;;29.87;22.53;;;8.90;99.90;;;;;;4979940;28;20217;-62
2023/04/09 09:26:56;;;;;;;32.30;23.00;;;9.20;99.90;;;;;;4980486;28;20294;-83
2023/04/09 09:29:21;;;;;;;26.57;21.67;;;9.30;99.90;;;;;;4973748;28;20225;-62
2023/04/09 09:31:49;;;;;;;25.77;21.47;;;9.50;99.90;;;;;;4972624;28;20202;-62
2023/04/09 09:34:16;;;;;;;30.17;22.63;;;9.60;99.90;;;;;;4979549;28;20711;-62
2023/04/09 09:36:43;;;;;;;28.17;21.30;;;9.60;99.90;;;;;;4974094;28;20208;-63
2023/04/09 09:39:11;;;;;;;33.33;23.83;;;9.70;99.90;;;;;;4968867;28;20292;-62
2023/04/09 09:41:38;;;;;;;27.27;22.87;;;9.70;99.90;;;;;;4974801;28;20210;-63
2023/04/09 09:44:06;;;;;;;31.13;23.50;;;9.40;99.90;;;;;;4979671;28;20215;-62
2023/04/09 09:46:40;;;;;;;31.40;24.20;;;9.30;99.90;;;;;;4978398;28;20206;-63
2023/04/09 09:49:06;;;;;;;34.93;22.97;;;9.50;99.90;;;;;;4966828;28;20210;-67
2023/04/09 09:51:35;;;;;;;30.47;23.13;;;9.90;99.90;;;;;;4968244;28;20230;-63
2023/04/09 09:54:01;;;;;;;30.60;22.97;;;10.10;99.90;;;;;;4969822;28;20203;-62
2023/04/09 09:56:33;;;;;;;28.47;21.80;;;10.40;99.90;;;;;;4979293;28;20688;-64
2023/04/09 09:59:06;;;;;;;30.03;22.50;;;10.50;99.90;;;;;;4977661;28;20281;-64
2023/04/09 10:01:33;;;;;;;26.77;20.77;;;10.60;99.90;;;;;;4975905;28;20208;-64
2023/04/09 10:04:00;;;;;;;29.77;21.40;;;10.40;99.90;;;;;;4968981;28;20198;-65
2023/04/09 10:06:26;;;;;;;30.13;22.97;;;10.30;99.90;;;;;;4963972;28;20259;-73
2023/04/09 10:08:56;;;;;;;26.93;21.37;;;10.70;99.90;;;;;;4969799;28;20270;-66
2023/04/09 10:11:23;;;;;;;29.40;21.40;;;11.00;99.90;;;;;;4969253;28;20212;-70
2023/04/09 10:13:58;;;;;;;27.93;22.57;;;10.90;99.90;;;;;;4966394;28;20236;-72
2023/04/09 10:16:26;;;;;;;27.87;21.47;;;10.70;99.90;;;;;;4965659;28;20698;-70
2023/04/09 10:18:52;;;;;;;27.17;20.43;;;10.80;99.90;;;;;;4978170;28;20825;-70
2023/04/09 10:21:39;;;;;;;28.60;21.23;;;10.80;99.90;;;;;;4978475;28;20535;-69
2023/04/09 10:24:06;;;;;;;28.60;21.10;;;10.80;99.90;;;;;;4973039;28;20257;-68
2023/04/09 10:26:34;;;;;;;32.00;22.93;;;10.70;99.90;;;;;;4966942;28;20772;-72
2023/04/09 10:29:13;;;;;;;29.37;22.60;;;10.50;99.90;;;;;;4953724;28;20295;-73
2023/04/09 10:31:51;;;;;;;29.73;22.33;;;10.60;99.90;;;;;;4969529;28;20302;-65
2023/04/09 10:34:19;;;;;;;29.47;21.97;;;10.90;99.90;;;;;;4975101;28;20256;-61
2023/04/09 10:36:55;;;;;;;26.30;21.03;;;10.90;99.90;;;;;;4971841;28;20235;-65
2023/04/09 10:39:32;;;;;;;27.60;20.40;;;11.10;99.90;;;;;;4969200;28;20243;-64
2023/04/09 10:42:01;;;;;;;26.60;20.17;;;11.20;99.90;;;;;;4967028;28;20235;-64
2023/04/09 10:44:27;;;;;;;26.80;20.53;;;11.10;99.90;;;;;;4972816;28;20749;-64
2023/04/09 10:46:54;;;;;;;25.57;19.07;;;11.10;99.90;;;;;;4967608;28;20208;-64
2023/04/09 10:49:21;;;;;;;26.23;20.57;;;11.00;99.90;;;;;;4970412;28;20641;-64
2023/04/09 10:51:49;;;;;;;23.83;19.33;;;11.20;99.90;;;;;;4967114;28;20224;-64
2023/04/09 10:54:33;;;;;;;27.43;20.00;;;11.70;99.90;;;;;;4968762;28;20237;-65
2023/04/09 10:57:15;;;;;;;27.00;21.47;;;11.90;99.90;;;;;;4965836;28;20208;-64
2023/04/09 10:59:48;;;;;;;25.10;19.17;;;11.90;99.90;;;;;;4972166;28;20211;-65
2023/04/09 11:02:37;;;;;;;22.43;19.20;;;11.90;99.90;;;;;;4969223;28;20292;-65
2023/04/09 11:05:09;;;;;;;30.27;19.97;;;11.80;99.90;;;;;;4969266;28;20684;-64
2023/04/09 11:07:40;;;;;;;26.47;19.53;;;12.00;99.90;;;;;;4969380;28;20280;-65
2023/04/09 11:10:06;;;;;;;27.40;20.17;;;12.10;99.90;;;;;;4974076;28;20691;-72
2023/04/09 11:12:32;;;;;;;26.73;20.43;;;12.10;99.90;;;;;;4971438;28;20288;-66
2023/04/09 11:14:58;;;;;;;24.50;19.23;;;12.00;99.90;;;;;;4962767;28;20297;-66
2023/04/09 11:17:24;;;;;;;25.83;20.03;;;11.90;99.90;;;;;;4964478;28;20205;-66
2023/04/09 11:19:49;;;;;;;22.93;18.90;;;12.20;99.90;;;;;;4974329;28;20203;-68
2023/04/09 11:22:15;;;;;;;22.97;17.50;;;13.00;99.90;;;;;;4964642;28;20209;-67
2023/04/09 11:24:49;;;;;;;21.70;17.07;;;13.10;99.90;;;;;;4961171;28;20946;-67
2023/04/09 11:27:18;;;;;;;22.20;16.70;;;12.50;99.90;;;;;;4970460;28;20760;-69
2023/04/09 11:29:43;;;;;;;25.10;19.33;;;12.50;99.90;;;;;;4967601;28;20209;-69
2023/04/09 11:32:09;;;;;;;22.77;18.23;;;12.40;99.90;;;;;;4969098;28;20209;-69
2023/04/09 11:34:34;;;;;;;22.60;18.30;;;12.90;99.90;;;;;;4969118;28;20587;-69
2023/04/09 11:37:05;;;;;;;25.70;18.43;;;13.30;99.90;;;;;;4972336;28;20214;-69
2023/04/09 11:39:31;;;;;;;24.07;18.00;;;13.90;99.90;;;;;;4972289;28;20262;-68
2023/04/09 11:41:56;;;;;;;24.50;17.43;;;14.30;99.90;;;;;;4965595;28;20201;-68
2023/04/09 11:44:22;;;;;;;22.33;17.47;;;13.80;99.90;;;;;;4968932;28;20208;-68
2023/04/09 11:46:49;;;;;;;22.50;17.37;;;13.60;99.90;;;;;;4966310;28;20620;-68
2023/04/09 11:49:15;;;;;;;21.63;16.40;;;13.60;99.90;;;;;;4970224;28;20216;-68
2023/04/09 11:51:40;;;;;;;23.67;18.70;;;14.00;99.90;;;;;;4968408;28;20259;-68
2023/04/09 11:54:07;;;;;;;23.33;18.00;;;14.30;99.90;;;;;;4971288;28;20335;-68
2023/04/09 11:56:35;;;;;;;23.23;17.13;;;14.50;99.90;;;;;;4967895;28;20283;-69
2023/04/09 11:59:01;;;;;;;21.47;16.70;;;14.90;99.60;;;;;;4965456;28;20292;-69
2023/04/09 12:01:32;;;;;;;21.80;17.13;;;15.00;99.40;;;;;;4970236;28;20213;-69
2023/04/09 12:03:59;;;;;;;20.33;15.90;;;15.10;99.30;;;;;;4972323;28;20201;-71
2023/04/09 12:06:25;;;;;;;19.07;16.00;;;15.60;98.40;;;;;;4963544;28;20210;-67
2023/04/09 12:08:55;;;;;;;21.17;17.33;;;15.40;98.40;;;;;;4971767;28;20662;-66
2023/04/09 12:11:30;;;;;;;23.07;17.97;;;15.20;98.20;;;;;;4976077;28;20198;-68
2023/04/09 12:14:05;;;;;;;17.70;15.73;;;15.10;98.50;;;;;;4979661;28;20198;-68
2023/04/09 12:16:32;;;;;;;23.23;16.50;;;15.40;97.50;;;;;;4971515;28;20675;-68
2023/04/09 12:19:06;;;;;;;19.73;15.77;;;15.90;97.40;;;;;;4976870;28;20193;-68
2023/04/09 12:21:55;;;;;;;20.60;16.77;;;15.70;97.70;;;;;;4976809;28;20205;-67
2023/04/09 12:24:24;;;;;;;19.73;14.87;;;16.10;96.70;;;;;;4948166;28;21202;-68
2023/04/09 12:26:50;;;;;;;20.83;16.63;;;16.60;96.60;;;;;;4966381;28;20672;-68
2023/04/09 12:29:18;;;;;;;18.67;14.73;;;16.70;94.40;;;;;;4966304;28;20214;-67
2023/04/09 12:31:45;;;;;;;19.13;14.97;;;16.50;94.70;;;;;;4972893;28;20208;-67
2023/04/09 12:34:11;;;;;;;17.33;14.70;;;16.90;94.20;;;;;;4977103;28;20316;-68
2023/04/09 12:36:38;;;;;;;21.87;16.70;;;16.90;92.80;;;;;;4977416;28;20291;-68